createdAt,value
2023-02-09T00:01:31.894Z,-6.00
2023-02-09T00:04:00.662Z,-6.09
2023-02-09T00:06:30.012Z,-6.01
2023-02-09T00:08:59.051Z,-5.89
2023-02-09T00:11:50.130Z,-5.97
2023-02-09T00:14:21.991Z,-6.06
2023-02-09T00:16:50.510Z,-6.08
2023-02-09T00:19:20.451Z,-6.22
2023-02-09T00:21:48.327Z,-6.38
2023-02-09T00:24:16.244Z,-6.25
2023-02-09T00:26:44.183Z,-6.24
2023-02-09T00:29:12.949Z,-6.26
2023-02-09T00:31:40.701Z,-6.37
2023-02-09T00:34:09.005Z,-6.12
2023-02-09T00:36:36.597Z,-6.38
2023-02-09T00:39:04.894Z,-6.50
2023-02-09T00:41:51.972Z,-6.70
2023-02-09T00:44:19.944Z,-6.85
2023-02-09T00:46:49.213Z,-6.87
2023-02-09T00:49:17.041Z,-6.75
2023-02-09T00:51:44.893Z,-6.88
2023-02-09T00:54:13.598Z,-6.89
2023-02-09T00:56:41.140Z,-6.75
2023-02-09T00:59:09.405Z,-6.61
2023-02-09T01:01:37.849Z,-6.62
2023-02-09T01:04:06.159Z,-6.66
2023-02-09T01:06:34.265Z,-6.33
2023-02-09T01:09:02.695Z,-6.55
2023-02-09T01:11:30.495Z,-6.38
2023-02-09T01:14:00.011Z,-6.25
2023-02-09T01:16:28.966Z,-6.35
2023-02-09T01:18:59.184Z,-6.29
2023-02-09T01:21:27.325Z,-6.33
2023-02-09T01:23:55.662Z,-6.46
2023-02-09T01:26:23.581Z,-6.41
2023-02-09T01:28:54.520Z,-6.35
2023-02-09T01:31:34.858Z,-6.24
2023-02-09T01:34:04.086Z,-5.82
2023-02-09T01:36:32.984Z,-5.96
2023-02-09T01:39:02.410Z,-5.77
2023-02-09T01:41:30.319Z,-5.76
2023-02-09T01:44:11.912Z,-5.68
2023-02-09T01:46:40.100Z,-5.55
2023-02-09T01:49:18.247Z,-5.51
2023-02-09T01:52:15.196Z,-5.38
2023-02-09T01:54:48.921Z,-5.17
2023-02-09T01:57:18.621Z,-4.91
2023-02-09T01:59:52.839Z,-5.04
2023-02-09T02:02:21.818Z,-5.00
2023-02-09T02:04:51.233Z,-4.75
2023-02-09T02:07:45.569Z,-4.77
2023-02-09T02:10:13.964Z,-4.73
2023-02-09T02:12:43.012Z,-4.86
2023-02-09T02:15:12.854Z,-4.84
2023-02-09T02:18:01.968Z,-4.66
2023-02-09T02:20:41.758Z,-4.84
2023-02-09T02:23:43.195Z,-4.85
2023-02-09T02:26:43.899Z,-4.90
2023-02-09T02:30:03.025Z,-4.76
2023-02-09T02:33:12.986Z,-4.79
2023-02-09T02:35:44.600Z,-4.83
2023-02-09T02:38:33.422Z,-4.92
2023-02-09T02:41:15.040Z,-4.95
2023-02-09T02:43:54.328Z,-4.71
2023-02-09T02:46:26.362Z,-4.75
2023-02-09T02:49:00.732Z,-4.72
2023-02-09T02:51:35.479Z,-4.70
2023-02-09T02:54:08.355Z,-4.60
2023-02-09T02:56:51.023Z,-4.72
2023-02-09T02:59:27.066Z,-4.63
2023-02-09T03:02:06.346Z,-4.79
2023-02-09T03:04:36.683Z,-4.70
2023-02-09T03:07:09.167Z,-4.87
2023-02-09T03:09:37.030Z,-4.85
2023-02-09T03:12:16.287Z,-4.68
2023-02-09T03:15:07.878Z,-4.80
2023-02-09T03:17:54.127Z,-4.58
2023-02-09T03:20:29.818Z,-4.70
2023-02-09T03:23:02.612Z,-4.77
2023-02-09T03:25:43.759Z,-4.81
2023-02-09T03:28:20.307Z,-4.65
2023-02-09T03:30:50.201Z,-4.65
2023-02-09T03:33:29.613Z,-4.76
2023-02-09T03:36:00.176Z,-4.62
2023-02-09T03:38:28.205Z,-4.78
2023-02-09T03:40:56.183Z,-4.83
2023-02-09T03:43:46.473Z,-4.60
2023-02-09T03:46:14.543Z,-4.58
2023-02-09T03:48:42.101Z,-4.57
2023-02-09T03:51:10.406Z,-4.51
2023-02-09T03:53:37.954Z,-4.43
2023-02-09T03:56:09.302Z,-4.61
2023-02-09T03:58:37.716Z,-4.77
2023-02-09T04:01:08.042Z,-4.83
2023-02-09T04:03:36.592Z,-4.75
2023-02-09T04:06:04.829Z,-4.83
2023-02-09T04:08:33.255Z,-4.84
2023-02-09T04:11:01.275Z,-4.63
2023-02-09T04:13:29.137Z,-4.53
2023-02-09T04:15:57.164Z,-4.65
2023-02-09T04:18:24.954Z,-4.52
2023-02-09T04:20:52.810Z,-4.51
2023-02-09T04:23:21.201Z,-4.82
2023-02-09T04:25:49.282Z,-4.96
2023-02-09T04:28:18.511Z,-4.90
2023-02-09T04:30:51.151Z,-4.96
2023-02-09T04:33:18.725Z,-4.98
2023-02-09T04:35:48.848Z,-5.04
2023-02-09T04:38:19.438Z,-5.06
2023-02-09T04:40:48.327Z,-5.17
2023-02-09T04:43:15.986Z,-5.23
2023-02-09T04:45:44.408Z,-5.00
2023-02-09T04:48:18.607Z,-4.99
2023-02-09T04:50:47.342Z,-5.12
2023-02-09T04:53:15.602Z,-5.34
2023-02-09T04:55:45.360Z,-5.50
2023-02-09T04:58:34.301Z,-5.75
2023-02-09T05:01:03.117Z,-5.51
2023-02-09T05:03:31.583Z,-5.86
2023-02-09T05:06:02.086Z,-5.91
2023-02-09T05:08:30.407Z,-5.96
2023-02-09T05:10:58.671Z,-5.98
2023-02-09T05:13:27.039Z,-6.21
2023-02-09T05:15:55.452Z,-6.04
2023-02-09T05:18:24.449Z,-6.25
2023-02-09T05:20:52.409Z,-6.28
2023-02-09T05:23:20.664Z,-6.26
2023-02-09T05:25:48.589Z,-6.32
2023-02-09T05:28:16.572Z,-6.33
2023-02-09T05:30:44.988Z,-6.51
2023-02-09T05:33:12.794Z,-6.38
2023-02-09T05:35:40.636Z,-6.45
2023-02-09T05:38:08.240Z,-6.57
2023-02-09T05:40:36.060Z,-6.60
2023-02-09T05:43:03.710Z,-6.59
2023-02-09T05:45:31.624Z,-6.62
2023-02-09T05:47:59.208Z,-6.62
2023-02-09T05:50:27.154Z,-6.88
2023-02-09T05:52:58.196Z,-6.61
2023-02-09T05:55:26.420Z,-6.77
2023-02-09T05:57:54.012Z,-6.91
2023-02-09T06:00:23.742Z,-6.84
2023-02-09T06:02:51.662Z,-6.66
2023-02-09T06:05:21.944Z,-6.82
2023-02-09T06:07:49.749Z,-6.98
2023-02-09T06:10:18.733Z,-6.93
2023-02-09T06:12:46.757Z,-6.76
2023-02-09T06:15:16.459Z,-6.82
2023-02-09T06:17:44.526Z,-6.93
2023-02-09T06:20:12.765Z,-7.05
2023-02-09T06:22:40.726Z,-6.77
2023-02-09T06:25:08.974Z,-6.78
2023-02-09T06:27:36.909Z,-6.61
2023-02-09T06:30:06.110Z,-6.72
2023-02-09T06:32:33.833Z,-6.76
2023-02-09T06:35:01.721Z,-6.59
2023-02-09T06:37:29.351Z,-6.59
2023-02-09T06:39:57.232Z,-6.51
2023-02-09T06:42:24.904Z,-6.44
2023-02-09T06:44:52.758Z,-6.41
2023-02-09T06:47:20.433Z,-6.15
2023-02-09T06:49:48.260Z,-5.47
2023-02-09T06:52:15.965Z,-4.76
2023-02-09T06:54:45.138Z,-4.16
2023-02-09T06:57:12.823Z,-3.63
2023-02-09T06:59:40.604Z,-3.42
2023-02-09T07:02:11.080Z,-3.56
2023-02-09T07:04:38.918Z,-3.55
2023-02-09T07:07:06.551Z,-3.13
2023-02-09T07:09:34.486Z,-2.92
2023-02-09T07:12:02.051Z,-2.64
2023-02-09T07:14:29.913Z,-2.39
2023-02-09T07:16:57.898Z,-2.78
2023-02-09T07:19:25.797Z,-3.10
2023-02-09T07:21:53.492Z,-3.10
2023-02-09T07:24:21.465Z,-2.73
2023-02-09T07:26:49.144Z,-2.55
2023-02-09T07:29:17.335Z,-2.60
2023-02-09T07:31:45.083Z,-2.69
2023-02-09T07:34:12.994Z,-2.51
2023-02-09T07:36:40.562Z,-2.35
2023-02-09T07:39:08.709Z,-2.42
2023-02-09T07:41:36.435Z,-2.01
2023-02-09T07:44:04.218Z,-2.20
2023-02-09T07:46:31.926Z,-1.91
2023-02-09T07:49:01.489Z,-1.72
2023-02-09T07:51:29.688Z,-1.69
2023-02-09T07:53:59.435Z,-1.92
2023-02-09T07:56:27.946Z,-1.87
2023-02-09T07:58:56.380Z,-1.93
2023-02-09T08:01:24.884Z,-1.79
2023-02-09T08:03:52.908Z,-1.51
2023-02-09T08:06:41.094Z,-1.47
2023-02-09T08:09:11.773Z,-1.03
2023-02-09T08:11:45.815Z,-0.49
2023-02-09T08:14:20.032Z,0.24
2023-02-09T08:16:49.928Z,0.47
2023-02-09T08:19:22.046Z,1.14
2023-02-09T08:21:51.140Z,1.65
2023-02-09T08:24:20.956Z,2.30
2023-02-09T08:26:48.533Z,2.88
2023-02-09T08:29:16.515Z,3.86
2023-02-09T08:31:44.328Z,4.52
2023-02-09T08:34:12.205Z,5.10
2023-02-09T08:36:41.447Z,5.56
2023-02-09T08:39:10.129Z,5.63
2023-02-09T08:41:37.956Z,6.28
2023-02-09T08:44:05.965Z,7.01
2023-02-09T08:46:36.012Z,7.46
2023-02-09T08:49:04.193Z,8.25
2023-02-09T08:51:31.693Z,8.08
2023-02-09T08:53:59.600Z,9.26
2023-02-09T08:56:27.352Z,9.83
2023-02-09T08:58:55.309Z,9.96
2023-02-09T09:01:23.066Z,10.00
2023-02-09T09:03:51.103Z,10.21
2023-02-09T09:06:18.956Z,10.88
2023-02-09T09:08:46.949Z,11.04
2023-02-09T09:11:14.914Z,11.59
2023-02-09T09:13:43.403Z,11.05
2023-02-09T09:16:16.611Z,10.76
2023-02-09T09:18:45.338Z,10.77
2023-02-09T09:21:14.490Z,11.46
2023-02-09T09:23:43.554Z,11.56
2023-02-09T09:26:11.580Z,11.55
2023-02-09T09:28:39.589Z,10.99
2023-02-09T09:31:12.448Z,10.81
2023-02-09T09:33:41.760Z,10.38
2023-02-09T09:36:10.443Z,10.81
2023-02-09T09:38:39.690Z,11.08
2023-02-09T09:41:33.002Z,10.53
2023-02-09T09:44:02.542Z,10.86
2023-02-09T09:46:39.539Z,10.47
2023-02-09T09:49:18.786Z,10.98
2023-02-09T09:51:52.444Z,11.22
2023-02-09T09:54:21.968Z,10.47
2023-02-09T09:56:51.315Z,11.22
2023-02-09T09:59:26.731Z,10.47
2023-02-09T10:01:56.378Z,10.86
2023-02-09T10:04:24.404Z,10.21
2023-02-09T10:07:10.886Z,10.63
2023-02-09T10:09:44.684Z,10.24
2023-02-09T10:12:36.025Z,10.41
2023-02-09T10:15:33.821Z,9.83
2023-02-09T10:18:02.104Z,10.42
2023-02-09T10:20:48.810Z,10.39
2023-02-09T10:23:24.135Z,10.36
2023-02-09T10:25:52.278Z,10.20
2023-02-09T10:28:22.630Z,10.41
2023-02-09T10:30:56.176Z,10.51
2023-02-09T10:33:24.373Z,10.80
2023-02-09T10:35:54.986Z,9.78
2023-02-09T10:38:28.093Z,7.94
2023-02-09T10:40:56.202Z,6.42
2023-02-09T10:43:33.803Z,5.27
2023-02-09T10:46:10.381Z,4.70
2023-02-09T10:48:43.535Z,4.60
2023-02-09T10:51:28.959Z,4.30
2023-02-09T10:54:04.815Z,4.09
2023-02-09T10:56:45.762Z,3.99
2023-02-09T10:59:19.103Z,3.63
2023-02-09T11:02:02.085Z,3.31
2023-02-09T11:04:40.820Z,3.40
2023-02-09T11:07:18.104Z,3.47
2023-02-09T11:09:49.223Z,3.41
2023-02-09T11:12:20.439Z,3.27
2023-02-09T11:14:48.603Z,3.30
2023-02-09T11:17:21.663Z,3.22
2023-02-09T11:20:10.952Z,3.27
2023-02-09T11:23:06.828Z,3.06
2023-02-09T11:26:09.081Z,3.09
2023-02-09T11:28:58.013Z,3.23
2023-02-09T11:31:40.309Z,3.16
2023-02-09T11:34:52.607Z,3.27
2023-02-09T11:37:25.985Z,3.14
2023-02-09T11:40:19.479Z,3.09
2023-02-09T11:42:59.323Z,3.07
2023-02-09T11:45:50.118Z,3.02
2023-02-09T11:48:20.905Z,3.00
2023-02-09T11:51:10.024Z,3.12
2023-02-09T11:53:49.405Z,2.98
2023-02-09T11:56:21.023Z,3.22
2023-02-09T11:59:21.823Z,3.43
2023-02-09T12:02:18.701Z,3.27
2023-02-09T12:04:58.688Z,3.58
2023-02-09T12:07:48.773Z,3.75
2023-02-09T12:10:34.175Z,3.70
2023-02-09T12:13:12.731Z,3.78
2023-02-09T12:15:52.259Z,3.72
2023-02-09T12:18:24.392Z,3.89
2023-02-09T12:20:53.962Z,4.02
2023-02-09T12:23:41.573Z,4.05
2023-02-09T12:26:12.207Z,4.37
2023-02-09T12:28:53.909Z,4.35
2023-02-09T12:31:26.840Z,4.50
2023-02-09T12:34:10.840Z,4.60
2023-02-09T12:36:59.977Z,4.64
2023-02-09T12:39:29.787Z,4.80
2023-02-09T12:42:03.488Z,4.88
2023-02-09T12:44:31.428Z,4.87
2023-02-09T12:46:59.023Z,4.70
2023-02-09T12:49:30.021Z,4.46
2023-02-09T12:52:10.066Z,4.67
2023-02-09T12:54:56.714Z,4.73
2023-02-09T12:57:45.679Z,4.65
2023-02-09T13:00:15.175Z,4.92
2023-02-09T13:02:56.584Z,4.73
2023-02-09T13:05:29.062Z,4.68
2023-02-09T13:08:05.271Z,4.63
2023-02-09T13:10:50.796Z,4.33
2023-02-09T13:13:20.690Z,4.25
2023-02-09T13:15:54.513Z,4.40
2023-02-09T13:18:59.538Z,4.13
2023-02-09T13:21:56.318Z,4.01
2023-02-09T13:24:47.313Z,3.91
2023-02-09T13:27:21.016Z,3.93
2023-02-09T13:29:53.872Z,3.94
2023-02-09T13:32:52.379Z,3.93
2023-02-09T13:35:27.246Z,3.98
2023-02-09T13:37:57.495Z,3.91
2023-02-09T13:40:35.463Z,3.83
2023-02-09T13:43:13.036Z,3.84
2023-02-09T13:45:54.995Z,4.16
2023-02-09T13:48:26.118Z,4.00
2023-02-09T13:50:55.480Z,4.07
2023-02-09T13:53:25.558Z,4.08
2023-02-09T13:55:56.028Z,3.99
2023-02-09T13:58:30.986Z,4.05
2023-02-09T14:01:05.219Z,3.98
2023-02-09T14:03:56.775Z,3.86
2023-02-09T14:06:25.259Z,3.96
2023-02-09T14:08:55.093Z,3.80
2023-02-09T14:11:44.140Z,3.74
2023-02-09T14:15:00.334Z,3.97
2023-02-09T14:17:31.406Z,3.93
2023-02-09T14:20:00.241Z,3.85
2023-02-09T14:22:54.463Z,4.07
2023-02-09T14:25:26.097Z,3.99
2023-02-09T14:27:54.501Z,4.03
2023-02-09T14:30:26.593Z,4.02
2023-02-09T14:32:57.543Z,4.04
2023-02-09T14:35:29.048Z,3.89
2023-02-09T14:38:00.046Z,3.85
2023-02-09T14:40:28.055Z,3.82
2023-02-09T14:43:08.972Z,3.75
2023-02-09T14:45:39.928Z,3.55
2023-02-09T14:48:18.554Z,3.55
2023-02-09T14:50:48.594Z,3.44
2023-02-09T14:53:18.098Z,3.36
2023-02-09T14:55:46.362Z,3.13
2023-02-09T14:58:21.822Z,3.17
2023-02-09T15:00:51.049Z,2.95
2023-02-09T15:03:18.660Z,2.89
2023-02-09T15:05:52.347Z,2.73
2023-02-09T15:08:23.764Z,2.49
2023-02-09T15:10:56.667Z,2.41
2023-02-09T15:13:25.429Z,2.31
2023-02-09T15:15:53.341Z,2.38
2023-02-09T15:18:23.768Z,2.32
2023-02-09T15:20:52.176Z,2.14
2023-02-09T15:23:20.207Z,2.12
2023-02-09T15:25:48.739Z,2.03
2023-02-09T15:28:32.319Z,1.91
2023-02-09T15:31:00.555Z,1.80
2023-02-09T15:33:29.528Z,1.59
2023-02-09T15:35:59.973Z,1.55
2023-02-09T15:38:28.017Z,1.42
2023-02-09T15:41:14.929Z,1.44
2023-02-09T15:44:00.909Z,1.28
2023-02-09T15:46:47.320Z,1.20
2023-02-09T15:49:14.876Z,1.31
2023-02-09T15:51:42.985Z,1.12
2023-02-09T15:54:17.853Z,1.04
2023-02-09T15:56:46.132Z,1.17
2023-02-09T15:59:23.041Z,1.11
2023-02-09T16:01:52.338Z,0.97
2023-02-09T16:04:20.041Z,0.96
2023-02-09T16:06:54.342Z,1.06
2023-02-09T16:09:26.639Z,0.88
2023-02-09T16:11:55.056Z,0.75
2023-02-09T16:14:24.673Z,0.76
2023-02-09T16:16:53.073Z,0.73
2023-02-09T16:19:21.488Z,0.67
2023-02-09T16:21:53.039Z,0.74
2023-02-09T16:24:42.166Z,0.65
2023-02-09T16:27:28.389Z,0.73
2023-02-09T16:29:57.831Z,0.55
2023-02-09T16:32:28.467Z,0.63
2023-02-09T16:35:04.479Z,0.48
2023-02-09T16:37:39.181Z,0.61
2023-02-09T16:40:15.133Z,0.56
2023-02-09T16:42:43.742Z,0.67
2023-02-09T16:45:16.276Z,0.72
2023-02-09T16:47:49.690Z,0.62
2023-02-09T16:50:25.124Z,0.69
2023-02-09T16:52:55.755Z,0.60
2023-02-09T16:55:27.361Z,0.60
2023-02-09T16:57:57.666Z,0.57
2023-02-09T17:00:32.179Z,0.66
2023-02-09T17:03:14.073Z,0.70
2023-02-09T17:05:48.473Z,0.61
2023-02-09T17:08:22.520Z,0.56
2023-02-09T17:10:52.404Z,0.56
2023-02-09T17:13:21.404Z,0.61
2023-02-09T17:15:51.600Z,0.65
2023-02-09T17:18:28.482Z,0.65
2023-02-09T17:21:01.591Z,0.47
2023-02-09T17:23:30.572Z,0.45
2023-02-09T17:25:58.956Z,0.39
2023-02-09T17:28:28.384Z,0.38
2023-02-09T17:31:01.883Z,0.21
2023-02-09T17:33:31.961Z,0.27
2023-02-09T17:38:48.518Z,0.10
2023-02-09T17:41:20.508Z,0.04
2023-02-09T17:43:50.739Z,0.00
2023-02-09T17:46:19.821Z,-0.25
2023-02-09T17:48:48.269Z,-0.29
2023-02-09T17:51:34.493Z,-0.16
2023-02-09T17:54:06.452Z,-0.39
2023-02-09T17:56:34.319Z,-0.18
2023-02-09T17:59:08.082Z,-0.44
2023-02-09T18:01:41.970Z,-0.45
2023-02-09T18:04:20.088Z,-0.49
2023-02-09T18:06:48.371Z,-0.62
2023-02-09T18:09:16.577Z,-0.57
2023-02-09T18:11:47.191Z,-0.64
2023-02-09T18:14:16.539Z,-0.72
2023-02-09T18:16:45.108Z,-0.70
2023-02-09T18:19:13.999Z,-0.78
2023-02-09T18:22:11.807Z,-0.89
2023-02-09T18:24:40.063Z,-0.66
2023-02-09T18:27:08.809Z,-0.95
2023-02-09T18:29:36.689Z,-0.99
2023-02-09T18:32:04.657Z,-1.00
2023-02-09T18:34:32.750Z,-1.12
2023-02-09T18:37:00.297Z,-1.05
2023-02-09T18:39:28.172Z,-1.07
2023-02-09T18:41:55.762Z,-0.80
2023-02-09T18:44:28.875Z,-1.11
2023-02-09T18:49:17.577Z,-1.16
2023-02-09T18:51:45.711Z,-1.05
2023-02-09T18:54:13.249Z,-1.08
2023-02-09T18:56:41.183Z,-0.95
2023-02-09T18:59:08.811Z,-0.93
2023-02-09T19:01:36.923Z,-0.90
2023-02-09T19:04:04.816Z,-0.85
2023-02-09T19:06:35.409Z,-0.88
2023-02-09T19:09:03.037Z,-0.87
2023-02-09T19:11:30.925Z,-0.90
2023-02-09T19:14:17.076Z,-0.83
2023-02-09T19:16:44.910Z,-0.67
2023-02-09T19:19:13.405Z,-0.66
2023-02-09T19:21:41.239Z,-0.66
2023-02-09T19:24:08.862Z,-0.61
2023-02-09T19:26:36.746Z,-0.60
2023-02-09T19:29:04.297Z,-0.58
2023-02-09T19:31:32.270Z,-0.72
2023-02-09T19:33:59.943Z,-0.59
2023-02-09T19:36:28.308Z,-0.61
2023-02-09T19:38:56.737Z,-0.51
2023-02-09T19:41:25.725Z,-0.51
2023-02-09T19:43:57.626Z,-0.50
2023-02-09T19:46:26.102Z,-0.42
2023-02-09T19:48:53.931Z,-0.40
2023-02-09T19:51:22.615Z,-0.42
2023-02-09T19:53:50.730Z,-0.40
2023-02-09T19:56:20.852Z,-0.48
2023-02-09T19:58:48.425Z,-0.59
2023-02-09T20:01:17.177Z,-0.39
2023-02-09T20:03:44.915Z,-0.54
2023-02-09T20:06:14.245Z,-0.54
2023-02-09T20:08:42.273Z,-0.59
2023-02-09T20:11:12.951Z,-0.62
2023-02-09T20:13:41.068Z,-0.67
2023-02-09T20:16:23.440Z,-0.71
2023-02-09T20:18:52.213Z,-0.71
2023-02-09T20:21:22.201Z,-0.82
2023-02-09T20:23:53.237Z,-0.82
2023-02-09T20:26:25.966Z,-0.64
2023-02-09T20:28:54.236Z,-0.74
2023-02-09T20:31:27.529Z,-0.67
2023-02-09T20:33:55.948Z,-0.50
2023-02-09T20:36:25.578Z,-0.74
2023-02-09T20:38:53.697Z,-0.87
2023-02-09T20:41:21.558Z,-0.86
2023-02-09T20:44:07.674Z,-0.85
2023-02-09T20:46:55.903Z,-0.95
2023-02-09T20:49:26.005Z,-0.91
2023-02-09T20:51:53.976Z,-0.86
2023-02-09T20:54:21.577Z,-0.86
2023-02-09T20:56:49.608Z,-0.93
2023-02-09T20:59:17.855Z,-1.03
2023-02-09T21:01:45.998Z,-0.92
2023-02-09T21:04:13.665Z,-0.88
2023-02-09T21:06:41.548Z,-0.78
2023-02-09T21:09:11.933Z,-0.78
2023-02-09T21:11:40.100Z,-0.70
2023-02-09T21:14:13.228Z,-0.75
2023-02-09T21:16:45.343Z,-0.79
2023-02-09T21:19:13.001Z,-0.76
2023-02-09T21:21:40.921Z,-0.81
2023-02-09T21:24:08.600Z,-0.75
2023-02-09T21:26:40.226Z,-0.79
2023-02-09T21:29:08.356Z,-0.83
2023-02-09T21:31:36.397Z,-0.76
2023-02-09T21:34:04.528Z,-0.67
2023-02-09T21:36:32.704Z,-0.68
2023-02-09T21:39:00.879Z,-0.72
2023-02-09T21:41:47.180Z,-0.70
2023-02-09T21:44:15.223Z,-0.71
2023-02-09T21:46:43.572Z,-0.60
2023-02-09T21:49:12.837Z,-0.63
2023-02-09T21:51:41.925Z,-0.69
2023-02-09T21:54:14.744Z,-0.48
2023-02-09T21:56:43.339Z,-0.48
2023-02-09T21:59:11.397Z,-0.60
2023-02-09T22:01:40.744Z,-0.48
2023-02-09T22:04:08.682Z,-0.65
2023-02-09T22:06:36.623Z,-0.53
2023-02-09T22:09:06.290Z,-0.62
2023-02-09T22:11:34.524Z,-0.60
2023-02-09T22:14:02.177Z,-0.59
2023-02-09T22:16:30.227Z,-0.63
2023-02-09T22:18:58.713Z,-0.53
2023-02-09T22:21:27.019Z,-0.53
2023-02-09T22:23:55.131Z,-0.60
2023-02-09T22:26:23.286Z,-0.57
2023-02-09T22:28:50.996Z,-0.62
2023-02-09T22:31:20.984Z,-0.69
2023-02-09T22:33:53.907Z,-0.68
2023-02-09T22:36:23.391Z,-0.61
2023-02-09T22:38:51.786Z,-0.75
2023-02-09T22:41:22.017Z,-0.68
2023-02-09T22:43:56.540Z,-0.77
2023-02-09T22:46:27.483Z,-0.72
2023-02-09T22:48:57.438Z,-0.75
2023-02-09T22:51:28.388Z,-0.80
2023-02-09T22:53:56.916Z,-0.76
2023-02-09T22:56:25.911Z,-0.65
2023-02-09T22:58:54.876Z,-0.73
2023-02-09T23:01:23.138Z,-0.67
2023-02-09T23:03:51.176Z,-0.73
2023-02-09T23:06:27.073Z,-0.81
2023-02-09T23:09:00.600Z,-0.80
2023-02-09T23:11:30.223Z,-0.81
2023-02-09T23:14:14.069Z,-0.88
2023-02-09T23:16:43.607Z,-0.89
2023-02-09T23:19:17.171Z,-0.91
2023-02-09T23:21:47.756Z,-0.86
2023-02-09T23:24:18.266Z,-1.02
2023-02-09T23:26:46.107Z,-0.94
2023-02-09T23:29:15.874Z,-0.97
2023-02-09T23:31:45.378Z,-0.86
2023-02-09T23:34:19.441Z,-0.81
2023-02-09T23:36:48.107Z,-0.96
2023-02-09T23:39:18.718Z,-0.93
2023-02-09T23:41:46.802Z,-1.03
2023-02-09T23:44:14.509Z,-1.12
2023-02-09T23:46:42.613Z,-1.13
2023-02-09T23:49:11.009Z,-1.28
2023-02-09T23:51:38.867Z,-1.21
2023-02-09T23:54:07.635Z,-1.20
2023-02-09T23:56:38.823Z,-1.12
2023-02-09T23:59:10.124Z,-1.28
